map of DMO home
DMO - Airport
Location
City:  Sedalia, Missouri, United States
Name:Sedalia Regional
ICAO:KDMO
IATA:DMO
FAA LID:DMO

Details
Type:Airport (Airfield)
Use:Public/Civil
Latitude:3842'27"N (38.707417)
Longitude:9310'33"W (-93.175916)
Datum:WGS 1984
Elevation:909 ft (277 m)
Variation:0.60E (WMM2015 magnetic declination)
-0.09 annual change
Runways:2
Longest:5500 × 100 ft (1676 × 30.5 m), paved

Time
Time Zone:UTC-6 (DST-5)
Local Time:

Weather
METAR:KDMO 210953Z AUTO 31007KT 10SM BKN009 OVC014 22/20 A2992 RMK AO2 CIG 007V012 SLP126 T02170200

Related Locations
Nearby:
Farthest:YAUG: 10844 mi / 17451 km
Augusta [Augusta Airport], WA, AU

Find:

   beyond  
but within

Other Information
Maps:
NOTAMs:
Links:
Sources:

  
  • flag of United States
  • flag of Missouri
  

Sectional Chart

Flight Planning
at skyvector.com

Satellite Image

Google Maps Satellite view

 

Copyright © 2004-2018 Karl L. Swartz. All rights reserved.
The Great Circle Mapper name and logo are trademarks of the Great Circle Mapper.
All other trademarks mentioned herein belong to their respective owners.
Please see credits for attibutions and further copyright information.

  Follow gcmap on Facebook Follow gcmap on Twitter Follow gcmap on Google+ GCmap on LinkedIn

hCard Microformat

Geo Microformat